Key West Nas, Boca Chica Field, Airport Key West US
ICAO: KNQX
IATA: NQX
Category: Medium
Scheduled Services: No

Elevation: 6 ft
TransAlt. 18000 ft.

Airport Communications:
APP DEP:119.25
ATIS:27.72
CLNC DEL:121.2
GND:121.7
BASE OPS:33.8
PMSV METRO:34.46
TWR:126.1

KNQX Zoom In..

Runways:

(A) RW 03 length 7002 ft width 150 ft
---- / hdg 34

(B) RW 07 length 10001 ft width 200 ft
---- / hdg 75

(C) RW 13 length 7001 ft width 150 ft
---- / hdg 133

(D) RW 21 length 7002 ft width 150 ft
---- / hdg 214

(E) RW 25 length 10001 ft width 200 ft
---- / hdg 255

(F) RW 31 length 7001 ft width 150 ft
---- / hdg 313

Location; KNQX
Day. 22 / Time. 23.53 Zulu
* Altimeter: 30.02
* Temperature: 22° c. 71.6°f.
* Wind from: 090° Speed 11 kn.
Dewpoint: 22° c.
Visibility: 10 Statute Miles.
Clouds: Few 8000 ft.
Clouds: Broken 25000 ft.

KNQX 222353Z 09011KT 10SM FEW080 BKN250 22/22 A3002 RMK SLP163 T02220222 10261 20222 53005


Wind From 090°
Speed 11 kn.

YouTube Music Video
 
jpsmedia.com for Web Design  worldairports.se 2018   terms of use